sensor_id;sensor_type;location;lat;lon;timestamp;P1;durP1;ratioP1;P2;durP2;ratioP2
673;SDS011;319;48.764;9.174;2024-03-23T00:53:42;6.83;;;6.63;;
673;SDS011;319;48.764;9.174;2024-03-23T00:56:09;6.10;;;6.00;;
673;SDS011;319;48.764;9.174;2024-03-23T00:58:35;6.20;;;6.10;;
673;SDS011;319;48.764;9.174;2024-03-23T01:01:02;6.40;;;6.30;;
673;SDS011;319;48.764;9.174;2024-03-23T01:03:28;6.20;;;6.10;;
673;SDS011;319;48.764;9.174;2024-03-23T01:05:58;6.10;;;6.00;;
673;SDS011;319;48.764;9.174;2024-03-23T01:08:37;6.23;;;6.13;;
673;SDS011;319;48.764;9.174;2024-03-23T01:11:04;6.07;;;5.97;;
673;SDS011;319;48.764;9.174;2024-03-23T01:13:30;6.00;;;5.90;;
673;SDS011;319;48.764;9.174;2024-03-23T01:15:56;6.07;;;5.97;;
673;SDS011;319;48.764;9.174;2024-03-23T01:18:23;6.20;;;6.10;;
673;SDS011;319;48.764;9.174;2024-03-23T01:20:51;6.20;;;6.10;;
673;SDS011;319;48.764;9.174;2024-03-23T01:23:20;6.50;;;6.40;;
673;SDS011;319;48.764;9.174;2024-03-23T01:25:52;5.70;;;5.60;;
673;SDS011;319;48.764;9.174;2024-03-23T01:28:18;6.20;;;6.10;;
673;SDS011;319;48.764;9.174;2024-03-23T01:30:45;6.30;;;6.20;;
673;SDS011;319;48.764;9.174;2024-03-23T01:33:11;6.70;;;6.50;;
673;SDS011;319;48.764;9.174;2024-03-23T01:35:38;6.90;;;6.70;;
673;SDS011;319;48.764;9.174;2024-03-23T01:38:04;6.80;;;6.60;;
673;SDS011;319;48.764;9.174;2024-03-23T01:40:31;7.00;;;6.80;;
673;SDS011;319;48.764;9.174;2024-03-23T01:43:02;7.10;;;6.90;;
673;SDS011;319;48.764;9.174;2024-03-23T01:45:31;7.00;;;6.80;;
673;SDS011;319;48.764;9.174;2024-03-23T01:47:57;7.10;;;6.90;;
673;SDS011;319;48.764;9.174;2024-03-23T01:50:24;7.30;;;7.10;;
673;SDS011;319;48.764;9.174;2024-03-23T01:52:51;7.20;;;7.00;;
673;SDS011;319;48.764;9.174;2024-03-23T01:55:17;7.23;;;7.03;;
673;SDS011;319;48.764;9.174;2024-03-23T01:57:44;7.30;;;7.10;;
673;SDS011;319;48.764;9.174;2024-03-23T02:00:13;7.50;;;7.30;;
673;SDS011;319;48.764;9.174;2024-03-23T02:02:42;7.70;;;7.50;;
673;SDS011;319;48.764;9.174;2024-03-23T02:05:10;7.50;;;7.30;;
673;SDS011;319;48.764;9.174;2024-03-23T02:07:36;7.47;;;7.27;;
673;SDS011;319;48.764;9.174;2024-03-23T02:10:05;7.70;;;7.50;;
673;SDS011;319;48.764;9.174;2024-03-23T02:12:31;7.90;;;7.70;;
673;SDS011;319;48.764;9.174;2024-03-23T02:14:58;7.80;;;7.60;;
673;SDS011;319;48.764;9.174;2024-03-23T02:17:25;7.37;;;7.17;;
673;SDS011;319;48.764;9.174;2024-03-23T02:19:52;7.60;;;7.40;;
673;SDS011;319;48.764;9.174;2024-03-23T02:22:18;7.70;;;7.50;;
673;SDS011;319;48.764;9.174;2024-03-23T02:24:46;7.20;;;7.00;;
673;SDS011;319;48.764;9.174;2024-03-23T02:27:12;7.30;;;7.10;;
673;SDS011;319;48.764;9.174;2024-03-23T02:29:39;7.10;;;6.90;;
673;SDS011;319;48.764;9.174;2024-03-23T02:32:05;6.97;;;6.77;;
673;SDS011;319;48.764;9.174;2024-03-23T02:34:34;6.87;;;6.67;;
673;SDS011;319;48.764;9.174;2024-03-23T02:37:00;7.10;;;6.90;;
673;SDS011;319;48.764;9.174;2024-03-23T02:39:27;7.00;;;6.80;;
673;SDS011;319;48.764;9.174;2024-03-23T02:41:54;6.40;;;6.30;;
673;SDS011;319;48.764;9.174;2024-03-23T02:44:21;6.53;;;6.40;;
673;SDS011;319;48.764;9.174;2024-03-23T02:46:47;6.80;;;6.60;;
673;SDS011;319;48.764;9.174;2024-03-23T02:49:14;6.50;;;6.40;;
673;SDS011;319;48.764;9.174;2024-03-23T02:51:39;6.53;;;6.40;;
673;SDS011;319;48.764;9.174;2024-03-23T02:54:07;6.50;;;6.40;;
673;SDS011;319;48.764;9.174;2024-03-23T02:56:33;6.30;;;6.20;;
673;SDS011;319;48.764;9.174;2024-03-23T02:59:01;6.23;;;6.13;;
673;SDS011;319;48.764;9.174;2024-03-23T03:01:27;6.10;;;6.00;;
673;SDS011;319;48.764;9.174;2024-03-23T03:03:54;6.00;;;5.90;;
673;SDS011;319;48.764;9.174;2024-03-23T03:06:23;6.43;;;6.33;;
673;SDS011;319;48.764;9.174;2024-03-23T03:08:50;6.10;;;6.00;;
673;SDS011;319;48.764;9.174;2024-03-23T03:11:16;5.90;;;5.80;;
673;SDS011;319;48.764;9.174;2024-03-23T03:13:43;5.90;;;5.80;;
673;SDS011;319;48.764;9.174;2024-03-23T03:16:10;6.10;;;6.00;;
673;SDS011;319;48.764;9.174;2024-03-23T03:18:38;5.87;;;5.77;;
673;SDS011;319;48.764;9.174;2024-03-23T03:21:05;5.97;;;5.87;;
673;SDS011;319;48.764;9.174;2024-03-23T03:23:36;5.93;;;5.83;;
673;SDS011;319;48.764;9.174;2024-03-23T03:26:02;5.90;;;5.80;;
673;SDS011;319;48.764;9.174;2024-03-23T03:28:29;5.60;;;5.50;;
673;SDS011;319;48.764;9.174;2024-03-23T03:30:56;5.43;;;5.33;;
673;SDS011;319;48.764;9.174;2024-03-23T03:33:24;5.80;;;5.70;;
673;SDS011;319;48.764;9.174;2024-03-23T03:35:51;5.30;;;5.20;;
673;SDS011;319;48.764;9.174;2024-03-23T03:38:18;5.60;;;5.50;;
673;SDS011;319;48.764;9.174;2024-03-23T03:40:44;5.50;;;5.40;;
673;SDS011;319;48.764;9.174;2024-03-23T03:43:12;5.60;;;5.50;;
673;SDS011;319;48.764;9.174;2024-03-23T03:45:38;5.70;;;5.60;;
673;SDS011;319;48.764;9.174;2024-03-23T03:48:06;5.50;;;5.40;;
673;SDS011;319;48.764;9.174;2024-03-23T03:50:33;5.87;;;5.77;;
673;SDS011;319;48.764;9.174;2024-03-23T03:53:00;5.00;;;4.90;;
673;SDS011;319;48.764;9.174;2024-03-23T03:55:26;5.30;;;5.20;;
673;SDS011;319;48.764;9.174;2024-03-23T03:57:53;5.23;;;5.13;;
673;SDS011;319;48.764;9.174;2024-03-23T04:00:19;5.17;;;5.07;;
673;SDS011;319;48.764;9.174;2024-03-23T04:02:46;5.00;;;4.90;;
673;SDS011;319;48.764;9.174;2024-03-23T04:05:12;5.10;;;5.00;;
673;SDS011;319;48.764;9.174;2024-03-23T04:07:41;4.70;;;4.60;;
673;SDS011;319;48.764;9.174;2024-03-23T04:10:07;4.80;;;4.70;;
673;SDS011;319;48.764;9.174;2024-03-23T04:12:34;4.70;;;4.60;;
673;SDS011;319;48.764;9.174;2024-03-23T04:15:00;4.37;;;4.27;;
673;SDS011;319;48.764;9.174;2024-03-23T04:17:28;4.60;;;4.50;;
673;SDS011;319;48.764;9.174;2024-03-23T04:19:57;4.40;;;4.30;;
673;SDS011;319;48.764;9.174;2024-03-23T04:22:24;4.40;;;4.30;;
673;SDS011;319;48.764;9.174;2024-03-23T04:24:53;4.50;;;4.40;;
673;SDS011;319;48.764;9.174;2024-03-23T04:27:20;4.30;;;4.20;;
673;SDS011;319;48.764;9.174;2024-03-23T04:29:46;3.93;;;3.83;;
673;SDS011;319;48.764;9.174;2024-03-23T04:32:14;4.70;;;4.60;;
673;SDS011;319;48.764;9.174;2024-03-23T04:34:40;4.37;;;4.27;;
673;SDS011;319;48.764;9.174;2024-03-23T04:37:07;4.60;;;4.50;;
673;SDS011;319;48.764;9.174;2024-03-23T04:39:34;4.47;;;4.37;;
673;SDS011;319;48.764;9.174;2024-03-23T04:42:03;4.50;;;4.40;;
673;SDS011;319;48.764;9.174;2024-03-23T04:44:31;4.50;;;4.40;;
673;SDS011;319;48.764;9.174;2024-03-23T04:46:58;4.60;;;4.50;;
673;SDS011;319;48.764;9.174;2024-03-23T04:49:26;3.70;;;3.60;;
673;SDS011;319;48.764;9.174;2024-03-23T04:51:53;4.43;;;4.33;;
673;SDS011;319;48.764;9.174;2024-03-23T04:54:20;4.10;;;4.00;;
673;SDS011;319;48.764;9.174;2024-03-23T04:56:47;3.50;;;3.40;;
673;SDS011;319;48.764;9.174;2024-03-23T04:59:15;3.20;;;3.10;;
673;SDS011;319;48.764;9.174;2024-03-23T05:01:41;3.10;;;3.00;;
673;SDS011;319;48.764;9.174;2024-03-23T05:04:08;2.80;;;2.80;;
673;SDS011;319;48.764;9.174;2024-03-23T05:06:34;3.33;;;3.23;;
673;SDS011;319;48.764;9.174;2024-03-23T05:09:01;2.80;;;2.80;;
673;SDS011;319;48.764;9.174;2024-03-23T05:11:31;2.70;;;2.70;;
673;SDS011;319;48.764;9.174;2024-03-23T05:13:58;2.50;;;2.50;;
673;SDS011;319;48.764;9.174;2024-03-23T05:16:25;2.50;;;2.50;;
673;SDS011;319;48.764;9.174;2024-03-23T05:18:52;2.30;;;2.30;;
673;SDS011;319;48.764;9.174;2024-03-23T05:21:18;2.30;;;2.30;;
673;SDS011;319;48.764;9.174;2024-03-23T05:23:45;2.30;;;2.30;;
673;SDS011;319;48.764;9.174;2024-03-23T05:26:11;2.30;;;2.30;;
673;SDS011;319;48.764;9.174;2024-03-23T05:28:38;2.10;;;2.10;;
673;SDS011;319;48.764;9.174;2024-03-23T05:31:03;2.00;;;2.00;;
673;SDS011;319;48.764;9.174;2024-03-23T05:33:33;2.10;;;2.10;;
673;SDS011;319;48.764;9.174;2024-03-23T05:36:01;2.20;;;2.20;;
673;SDS011;319;48.764;9.174;2024-03-23T05:38:29;2.00;;;2.00;;
673;SDS011;319;48.764;9.174;2024-03-23T05:40:55;1.90;;;1.90;;
673;SDS011;319;48.764;9.174;2024-03-23T05:43:23;2.20;;;2.20;;
673;SDS011;319;48.764;9.174;2024-03-23T05:45:53;1.97;;;1.97;;
673;SDS011;319;48.764;9.174;2024-03-23T05:48:20;1.80;;;1.80;;
673;SDS011;319;48.764;9.174;2024-03-23T05:50:47;1.90;;;1.90;;
673;SDS011;319;48.764;9.174;2024-03-23T05:53:14;2.10;;;2.10;;
673;SDS011;319;48.764;9.174;2024-03-23T05:55:40;2.00;;;2.00;;
673;SDS011;319;48.764;9.174;2024-03-23T05:58:07;1.90;;;1.90;;
673;SDS011;319;48.764;9.174;2024-03-23T06:00:34;1.90;;;1.90;;
673;SDS011;319;48.764;9.174;2024-03-23T06:03:01;1.90;;;1.90;;
673;SDS011;319;48.764;9.174;2024-03-23T06:05:27;1.90;;;1.90;;
673;SDS011;319;48.764;9.174;2024-03-23T06:07:55;1.80;;;1.80;;
673;SDS011;319;48.764;9.174;2024-03-23T06:10:21;2.00;;;2.00;;
673;SDS011;319;48.764;9.174;2024-03-23T06:12:47;1.77;;;1.77;;
673;SDS011;319;48.764;9.174;2024-03-23T06:15:14;1.90;;;1.90;;
673;SDS011;319;48.764;9.174;2024-03-23T06:17:41;1.80;;;1.80;;
673;SDS011;319;48.764;9.174;2024-03-23T06:20:09;1.87;;;1.87;;
673;SDS011;319;48.764;9.174;2024-03-23T06:22:35;1.70;;;1.70;;
673;SDS011;319;48.764;9.174;2024-03-23T06:25:04;1.90;;;1.90;;
673;SDS011;319;48.764;9.174;2024-03-23T06:27:30;1.80;;;1.80;;
673;SDS011;319;48.764;9.174;2024-03-23T06:29:57;1.80;;;1.80;;
673;SDS011;319;48.764;9.174;2024-03-23T06:32:24;1.80;;;1.80;;
673;SDS011;319;48.764;9.174;2024-03-23T06:34:51;1.80;;;1.80;;
673;SDS011;319;48.764;9.174;2024-03-23T06:37:17;1.80;;;1.80;;
673;SDS011;319;48.764;9.174;2024-03-23T06:39:45;1.90;;;1.90;;
673;SDS011;319;48.764;9.174;2024-03-23T06:42:13;2.00;;;2.00;;
673;SDS011;319;48.764;9.174;2024-03-23T06:44:40;2.10;;;2.10;;
673;SDS011;319;48.764;9.174;2024-03-23T06:47:05;2.00;;;2.00;;
673;SDS011;319;48.764;9.174;2024-03-23T06:49:32;1.93;;;1.93;;
673;SDS011;319;48.764;9.174;2024-03-23T06:52:01;2.10;;;2.10;;
673;SDS011;319;48.764;9.174;2024-03-23T06:54:29;1.90;;;1.90;;
673;SDS011;319;48.764;9.174;2024-03-23T06:56:55;1.90;;;1.90;;
673;SDS011;319;48.764;9.174;2024-03-23T06:59:23;2.10;;;2.10;;
673;SDS011;319;48.764;9.174;2024-03-23T07:01:49;2.00;;;2.00;;
673;SDS011;319;48.764;9.174;2024-03-23T07:04:16;2.30;;;2.30;;
673;SDS011;319;48.764;9.174;2024-03-23T07:06:43;2.30;;;2.30;;
673;SDS011;319;48.764;9.174;2024-03-23T07:09:10;2.50;;;2.50;;
673;SDS011;319;48.764;9.174;2024-03-23T07:11:37;2.20;;;2.20;;
673;SDS011;319;48.764;9.174;2024-03-23T07:14:04;2.40;;;2.40;;
673;SDS011;319;48.764;9.174;2024-03-23T07:16:31;2.47;;;2.47;;
673;SDS011;319;48.764;9.174;2024-03-23T07:18:58;2.60;;;2.60;;
673;SDS011;319;48.764;9.174;2024-03-23T07:21:24;2.70;;;2.70;;
673;SDS011;319;48.764;9.174;2024-03-23T07:23:51;2.70;;;2.70;;
673;SDS011;319;48.764;9.174;2024-03-23T07:26:17;2.30;;;2.30;;
673;SDS011;319;48.764;9.174;2024-03-23T07:28:45;2.20;;;2.20;;
673;SDS011;319;48.764;9.174;2024-03-23T07:31:11;2.37;;;2.37;;
673;SDS011;319;48.764;9.174;2024-03-23T07:33:43;2.60;;;2.60;;
673;SDS011;319;48.764;9.174;2024-03-23T07:36:10;2.70;;;2.70;;
673;SDS011;319;48.764;9.174;2024-03-23T07:38:37;2.60;;;2.60;;
673;SDS011;319;48.764;9.174;2024-03-23T07:41:05;2.27;;;2.27;;
673;SDS011;319;48.764;9.174;2024-03-23T07:43:32;2.77;;;2.77;;
673;SDS011;319;48.764;9.174;2024-03-23T07:45:58;2.40;;;2.40;;
673;SDS011;319;48.764;9.174;2024-03-23T07:48:26;2.77;;;2.77;;
673;SDS011;319;48.764;9.174;2024-03-23T07:50:59;2.80;;;2.80;;
673;SDS011;319;48.764;9.174;2024-03-23T07:53:27;3.00;;;2.90;;
673;SDS011;319;48.764;9.174;2024-03-23T07:55:54;2.70;;;2.70;;
673;SDS011;319;48.764;9.174;2024-03-23T07:58:22;2.40;;;2.40;;
673;SDS011;319;48.764;9.174;2024-03-23T08:00:48;2.20;;;2.20;;
673;SDS011;319;48.764;9.174;2024-03-23T08:03:15;2.10;;;2.10;;
673;SDS011;319;48.764;9.174;2024-03-23T08:05:42;1.90;;;1.90;;
673;SDS011;319;48.764;9.174;2024-03-23T08:08:10;2.30;;;2.30;;
673;SDS011;319;48.764;9.174;2024-03-23T08:10:36;2.30;;;2.30;;
673;SDS011;319;48.764;9.174;2024-03-23T08:13:03;2.30;;;2.30;;
673;SDS011;319;48.764;9.174;2024-03-23T08:15:33;2.10;;;2.10;;
673;SDS011;319;48.764;9.174;2024-03-23T08:18:05;2.10;;;2.10;;
673;SDS011;319;48.764;9.174;2024-03-23T08:20:40;1.80;;;1.80;;
673;SDS011;319;48.764;9.174;2024-03-23T08:23:52;1.90;;;1.90;;
673;SDS011;319;48.764;9.174;2024-03-23T08:26:19;1.90;;;1.90;;
673;SDS011;319;48.764;9.174;2024-03-23T08:28:45;2.00;;;2.00;;
673;SDS011;319;48.764;9.174;2024-03-23T08:31:13;2.10;;;2.10;;
673;SDS011;319;48.764;9.174;2024-03-23T08:33:39;2.00;;;2.00;;
673;SDS011;319;48.764;9.174;2024-03-23T08:36:08;2.13;;;2.13;;
673;SDS011;319;48.764;9.174;2024-03-23T08:38:37;2.10;;;2.10;;
673;SDS011;319;48.764;9.174;2024-03-23T08:41:06;1.80;;;1.80;;
673;SDS011;319;48.764;9.174;2024-03-23T08:43:34;2.30;;;2.30;;
673;SDS011;319;48.764;9.174;2024-03-23T08:46:05;2.20;;;2.20;;
673;SDS011;319;48.764;9.174;2024-03-23T08:48:32;2.50;;;2.50;;
673;SDS011;319;48.764;9.174;2024-03-23T08:51:01;2.60;;;2.60;;
673;SDS011;319;48.764;9.174;2024-03-23T08:53:28;2.90;;;2.80;;
673;SDS011;319;48.764;9.174;2024-03-23T08:55:55;2.80;;;2.80;;
673;SDS011;319;48.764;9.174;2024-03-23T08:58:24;3.10;;;3.00;;
673;SDS011;319;48.764;9.174;2024-03-23T09:00:52;3.30;;;3.20;;
673;SDS011;319;48.764;9.174;2024-03-23T09:03:23;3.50;;;3.40;;
673;SDS011;319;48.764;9.174;2024-03-23T09:06:06;4.30;;;4.20;;
673;SDS011;319;48.764;9.174;2024-03-23T09:08:33;3.77;;;3.67;;
673;SDS011;319;48.764;9.174;2024-03-23T09:11:03;3.77;;;3.67;;
673;SDS011;319;48.764;9.174;2024-03-23T09:13:32;4.10;;;4.00;;
673;SDS011;319;48.764;9.174;2024-03-23T09:15:59;4.20;;;4.10;;
673;SDS011;319;48.764;9.174;2024-03-23T09:18:26;3.33;;;3.23;;
673;SDS011;319;48.764;9.174;2024-03-23T09:20:53;4.00;;;3.90;;
673;SDS011;319;48.764;9.174;2024-03-23T09:23:19;4.80;;;4.70;;
673;SDS011;319;48.764;9.174;2024-03-23T09:25:46;4.70;;;4.60;;
673;SDS011;319;48.764;9.174;2024-03-23T09:28:12;4.30;;;4.20;;
673;SDS011;319;48.764;9.174;2024-03-23T09:30:43;5.40;;;5.30;;
673;SDS011;319;48.764;9.174;2024-03-23T09:33:13;5.50;;;5.40;;
673;SDS011;319;48.764;9.174;2024-03-23T09:35:40;5.33;;;5.23;;
673;SDS011;319;48.764;9.174;2024-03-23T09:38:07;5.20;;;5.10;;
673;SDS011;319;48.764;9.174;2024-03-23T09:40:34;6.50;;;6.40;;
673;SDS011;319;48.764;9.174;2024-03-23T09:43:01;5.70;;;5.60;;
673;SDS011;319;48.764;9.174;2024-03-23T09:45:28;7.00;;;6.80;;
673;SDS011;319;48.764;9.174;2024-03-23T09:47:56;6.70;;;6.50;;
673;SDS011;319;48.764;9.174;2024-03-23T09:50:23;7.50;;;7.30;;
673;SDS011;319;48.764;9.174;2024-03-23T09:52:49;8.00;;;7.80;;
673;SDS011;319;48.764;9.174;2024-03-23T09:55:15;7.87;;;7.67;;
673;SDS011;319;48.764;9.174;2024-03-23T09:57:41;7.73;;;7.53;;
673;SDS011;319;48.764;9.174;2024-03-23T10:00:09;8.10;;;7.90;;
673;SDS011;319;48.764;9.174;2024-03-23T10:02:37;9.30;;;9.10;;
673;SDS011;319;48.764;9.174;2024-03-23T10:05:06;9.30;;;9.10;;
673;SDS011;319;48.764;9.174;2024-03-23T10:07:46;8.93;;;8.73;;
673;SDS011;319;48.764;9.174;2024-03-23T10:10:14;9.50;;;9.30;;
673;SDS011;319;48.764;9.174;2024-03-23T10:12:43;8.80;;;8.60;;
673;SDS011;319;48.764;9.174;2024-03-23T10:15:15;9.50;;;9.30;;
673;SDS011;319;48.764;9.174;2024-03-23T10:17:43;9.33;;;9.13;;
673;SDS011;319;48.764;9.174;2024-03-23T10:20:12;9.17;;;8.97;;
673;SDS011;319;48.764;9.174;2024-03-23T10:22:38;9.43;;;9.23;;
673;SDS011;319;48.764;9.174;2024-03-23T10:25:07;9.60;;;9.40;;
673;SDS011;319;48.764;9.174;2024-03-23T10:27:33;9.00;;;8.80;;
673;SDS011;319;48.764;9.174;2024-03-23T10:30:07;8.30;;;8.10;;
673;SDS011;319;48.764;9.174;2024-03-23T10:32:34;9.80;;;9.60;;
673;SDS011;319;48.764;9.174;2024-03-23T10:35:15;8.90;;;8.70;;
673;SDS011;319;48.764;9.174;2024-03-23T10:37:43;9.47;;;9.27;;
673;SDS011;319;48.764;9.174;2024-03-23T10:40:11;9.07;;;8.87;;
673;SDS011;319;48.764;9.174;2024-03-23T10:42:38;9.53;;;9.33;;
673;SDS011;319;48.764;9.174;2024-03-23T10:45:06;9.50;;;9.30;;
673;SDS011;319;48.764;9.174;2024-03-23T10:47:34;9.60;;;9.40;;
673;SDS011;319;48.764;9.174;2024-03-23T10:50:02;8.27;;;8.07;;
673;SDS011;319;48.764;9.174;2024-03-23T10:52:31;8.80;;;8.60;;
673;SDS011;319;48.764;9.174;2024-03-23T10:54:59;8.80;;;8.60;;
673;SDS011;319;48.764;9.174;2024-03-23T10:57:29;7.43;;;7.23;;
673;SDS011;319;48.764;9.174;2024-03-23T11:00:19;6.70;;;6.50;;
673;SDS011;319;48.764;9.174;2024-03-23T11:02:47;5.40;;;5.30;;
673;SDS011;319;48.764;9.174;2024-03-23T11:05:28;5.40;;;5.30;;
673;SDS011;319;48.764;9.174;2024-03-23T11:07:55;4.87;;;4.77;;
673;SDS011;319;48.764;9.174;2024-03-23T11:10:25;4.40;;;4.30;;
673;SDS011;319;48.764;9.174;2024-03-23T11:12:52;4.40;;;4.30;;
673;SDS011;319;48.764;9.174;2024-03-23T11:15:19;4.20;;;4.10;;
673;SDS011;319;48.764;9.174;2024-03-23T11:20:31;2.60;;;2.60;;
673;SDS011;319;48.764;9.174;2024-03-23T11:22:59;2.40;;;2.40;;
673;SDS011;319;48.764;9.174;2024-03-23T11:25:27;3.20;;;3.10;;
673;SDS011;319;48.764;9.174;2024-03-23T11:27:53;2.50;;;2.50;;
673;SDS011;319;48.764;9.174;2024-03-23T11:30:22;2.70;;;2.70;;
673;SDS011;319;48.764;9.174;2024-03-23T11:32:49;3.07;;;3.00;;
673;SDS011;319;48.764;9.174;2024-03-23T11:35:26;3.00;;;2.90;;
673;SDS011;319;48.764;9.174;2024-03-23T11:38:04;2.87;;;2.83;;
673;SDS011;319;48.764;9.174;2024-03-23T11:40:36;3.30;;;3.20;;
673;SDS011;319;48.764;9.174;2024-03-23T11:43:03;2.90;;;2.90;;
673;SDS011;319;48.764;9.174;2024-03-23T11:45:33;3.40;;;3.30;;
673;SDS011;319;48.764;9.174;2024-03-23T11:48:06;3.30;;;3.20;;
673;SDS011;319;48.764;9.174;2024-03-23T11:50:36;4.27;;;4.17;;
673;SDS011;319;48.764;9.174;2024-03-23T11:53:14;4.90;;;4.80;;
673;SDS011;319;48.764;9.174;2024-03-23T11:55:46;5.60;;;5.50;;
673;SDS011;319;48.764;9.174;2024-03-23T11:58:13;5.10;;;5.00;;
673;SDS011;319;48.764;9.174;2024-03-23T12:00:40;6.23;;;6.13;;
673;SDS011;319;48.764;9.174;2024-03-23T12:03:06;6.90;;;6.70;;
673;SDS011;319;48.764;9.174;2024-03-23T12:05:35;7.10;;;6.90;;
673;SDS011;319;48.764;9.174;2024-03-23T12:08:22;8.30;;;8.10;;
673;SDS011;319;48.764;9.174;2024-03-23T12:10:50;7.93;;;7.73;;
673;SDS011;319;48.764;9.174;2024-03-23T12:13:18;8.90;;;8.70;;
673;SDS011;319;48.764;9.174;2024-03-23T12:15:46;8.50;;;8.30;;
673;SDS011;319;48.764;9.174;2024-03-23T12:18:14;8.17;;;7.97;;
673;SDS011;319;48.764;9.174;2024-03-23T12:20:41;9.07;;;8.87;;
673;SDS011;319;48.764;9.174;2024-03-23T12:23:08;10.07;;;9.87;;
673;SDS011;319;48.764;9.174;2024-03-23T12:25:38;10.03;;;9.83;;
673;SDS011;319;48.764;9.174;2024-03-23T12:28:04;9.70;;;9.50;;
673;SDS011;319;48.764;9.174;2024-03-23T12:30:35;9.33;;;9.13;;
673;SDS011;319;48.764;9.174;2024-03-23T12:33:04;9.40;;;9.20;;
673;SDS011;319;48.764;9.174;2024-03-23T12:35:31;11.67;;;11.37;;
673;SDS011;319;48.764;9.174;2024-03-23T12:37:57;11.07;;;10.77;;
673;SDS011;319;48.764;9.174;2024-03-23T12:40:24;10.60;;;10.30;;
673;SDS011;319;48.764;9.174;2024-03-23T12:42:51;11.57;;;11.27;;
673;SDS011;319;48.764;9.174;2024-03-23T12:45:18;11.63;;;11.33;;
673;SDS011;319;48.764;9.174;2024-03-23T12:47:44;12.13;;;11.83;;
673;SDS011;319;48.764;9.174;2024-03-23T12:50:11;10.93;;;10.63;;
673;SDS011;319;48.764;9.174;2024-03-23T12:52:37;12.17;;;11.87;;
673;SDS011;319;48.764;9.174;2024-03-23T12:55:04;11.70;;;11.40;;
673;SDS011;319;48.764;9.174;2024-03-23T12:57:31;10.50;;;10.20;;
673;SDS011;319;48.764;9.174;2024-03-23T12:59:59;8.40;;;8.20;;
673;SDS011;319;48.764;9.174;2024-03-23T13:02:25;9.17;;;8.97;;
673;SDS011;319;48.764;9.174;2024-03-23T13:04:53;9.60;;;9.40;;
673;SDS011;319;48.764;9.174;2024-03-23T13:07:19;9.40;;;9.20;;
673;SDS011;319;48.764;9.174;2024-03-23T13:09:46;8.43;;;8.23;;
673;SDS011;319;48.764;9.174;2024-03-23T13:12:15;8.70;;;8.50;;
673;SDS011;319;48.764;9.174;2024-03-23T13:14:42;9.07;;;8.87;;
673;SDS011;319;48.764;9.174;2024-03-23T13:17:09;8.80;;;8.60;;
673;SDS011;319;48.764;9.174;2024-03-23T13:19:36;9.10;;;8.90;;
673;SDS011;319;48.764;9.174;2024-03-23T13:22:02;9.50;;;9.30;;
673;SDS011;319;48.764;9.174;2024-03-23T13:24:30;9.10;;;8.90;;
673;SDS011;319;48.764;9.174;2024-03-23T13:26:56;9.33;;;9.13;;
673;SDS011;319;48.764;9.174;2024-03-23T13:29:24;8.67;;;8.47;;
673;SDS011;319;48.764;9.174;2024-03-23T13:31:50;8.97;;;8.77;;
673;SDS011;319;48.764;9.174;2024-03-23T13:34:19;9.47;;;9.27;;
673;SDS011;319;48.764;9.174;2024-03-23T13:36:45;10.00;;;9.80;;
673;SDS011;319;48.764;9.174;2024-03-23T13:39:13;8.50;;;8.30;;
673;SDS011;319;48.764;9.174;2024-03-23T13:41:40;10.40;;;10.10;;
673;SDS011;319;48.764;9.174;2024-03-23T13:44:08;11.13;;;10.83;;
673;SDS011;319;48.764;9.174;2024-03-23T13:46:36;11.30;;;11.00;;
673;SDS011;319;48.764;9.174;2024-03-23T13:49:03;11.10;;;10.80;;
673;SDS011;319;48.764;9.174;2024-03-23T13:51:31;11.60;;;11.30;;
673;SDS011;319;48.764;9.174;2024-03-23T13:53:58;11.10;;;10.80;;
673;SDS011;319;48.764;9.174;2024-03-23T13:56:26;11.03;;;10.73;;
673;SDS011;319;48.764;9.174;2024-03-23T13:58:54;11.80;;;11.50;;
673;SDS011;319;48.764;9.174;2024-03-23T14:01:21;11.90;;;11.60;;
673;SDS011;319;48.764;9.174;2024-03-23T14:03:52;10.90;;;10.60;;
673;SDS011;319;48.764;9.174;2024-03-23T14:06:18;12.00;;;11.70;;
673;SDS011;319;48.764;9.174;2024-03-23T14:08:46;11.90;;;11.60;;
673;SDS011;319;48.764;9.174;2024-03-23T14:11:17;10.20;;;10.00;;
673;SDS011;319;48.764;9.174;2024-03-23T14:13:45;10.03;;;9.83;;
673;SDS011;319;48.764;9.174;2024-03-23T14:16:10;10.00;;;9.80;;
673;SDS011;319;48.764;9.174;2024-03-23T14:18:37;7.93;;;7.73;;
673;SDS011;319;48.764;9.174;2024-03-23T14:21:03;7.43;;;7.23;;
673;SDS011;319;48.764;9.174;2024-03-23T14:23:30;6.40;;;6.30;;
673;SDS011;319;48.764;9.174;2024-03-23T14:25:59;5.80;;;5.70;;
673;SDS011;319;48.764;9.174;2024-03-23T14:28:26;4.37;;;4.27;;
673;SDS011;319;48.764;9.174;2024-03-23T14:30:56;5.20;;;5.10;;
673;SDS011;319;48.764;9.174;2024-03-23T14:33:23;4.30;;;4.20;;
673;SDS011;319;48.764;9.174;2024-03-23T14:35:52;1.80;;;1.80;;
673;SDS011;319;48.764;9.174;2024-03-23T14:38:20;4.40;;;4.30;;
673;SDS011;319;48.764;9.174;2024-03-23T14:40:46;4.27;;;4.17;;
673;SDS011;319;48.764;9.174;2024-03-23T14:43:15;3.83;;;3.73;;
673;SDS011;319;48.764;9.174;2024-03-23T14:45:48;3.80;;;3.70;;
673;SDS011;319;48.764;9.174;2024-03-23T14:48:36;3.73;;;3.63;;
673;SDS011;319;48.764;9.174;2024-03-23T14:51:03;3.47;;;3.37;;
673;SDS011;319;48.764;9.174;2024-03-23T14:53:31;4.00;;;3.90;;
673;SDS011;319;48.764;9.174;2024-03-23T14:55:59;4.00;;;3.90;;
673;SDS011;319;48.764;9.174;2024-03-23T14:58:28;3.70;;;3.60;;
673;SDS011;319;48.764;9.174;2024-03-23T15:00:59;3.87;;;3.77;;
673;SDS011;319;48.764;9.174;2024-03-23T15:03:26;4.70;;;4.60;;
673;SDS011;319;48.764;9.174;2024-03-23T15:05:53;4.30;;;4.20;;
673;SDS011;319;48.764;9.174;2024-03-23T15:08:20;4.50;;;4.40;;
673;SDS011;319;48.764;9.174;2024-03-23T15:10:47;4.50;;;4.40;;
673;SDS011;319;48.764;9.174;2024-03-23T15:13:13;4.20;;;4.10;;
673;SDS011;319;48.764;9.174;2024-03-23T15:15:42;4.70;;;4.60;;
673;SDS011;319;48.764;9.174;2024-03-23T15:18:09;4.60;;;4.50;;
673;SDS011;319;48.764;9.174;2024-03-23T15:20:37;4.40;;;4.30;;
673;SDS011;319;48.764;9.174;2024-03-23T15:23:04;5.10;;;5.00;;
673;SDS011;319;48.764;9.174;2024-03-23T15:25:31;4.90;;;4.80;;
673;SDS011;319;48.764;9.174;2024-03-23T15:27:57;5.87;;;5.77;;
673;SDS011;319;48.764;9.174;2024-03-23T15:30:25;5.20;;;5.10;;
673;SDS011;319;48.764;9.174;2024-03-23T15:32:54;4.40;;;4.30;;
673;SDS011;319;48.764;9.174;2024-03-23T15:35:21;4.77;;;4.67;;
673;SDS011;319;48.764;9.174;2024-03-23T15:37:48;4.70;;;4.60;;
673;SDS011;319;48.764;9.174;2024-03-23T15:40:15;5.40;;;5.30;;
673;SDS011;319;48.764;9.174;2024-03-23T15:42:41;5.47;;;5.37;;
673;SDS011;319;48.764;9.174;2024-03-23T15:45:11;5.70;;;5.60;;
673;SDS011;319;48.764;9.174;2024-03-23T15:47:37;5.33;;;5.23;;
673;SDS011;319;48.764;9.174;2024-03-23T15:50:06;5.70;;;5.60;;
673;SDS011;319;48.764;9.174;2024-03-23T15:52:34;6.20;;;6.10;;
673;SDS011;319;48.764;9.174;2024-03-23T15:55:01;6.20;;;6.10;;
673;SDS011;319;48.764;9.174;2024-03-23T15:57:30;6.03;;;5.93;;
673;SDS011;319;48.764;9.174;2024-03-23T15:59:59;6.20;;;6.10;;
673;SDS011;319;48.764;9.174;2024-03-23T16:02:24;6.03;;;5.93;;
673;SDS011;319;48.764;9.174;2024-03-23T16:04:52;5.20;;;5.10;;
673;SDS011;319;48.764;9.174;2024-03-23T16:07:20;5.10;;;5.00;;
673;SDS011;319;48.764;9.174;2024-03-23T16:09:49;5.90;;;5.80;;
673;SDS011;319;48.764;9.174;2024-03-23T16:12:15;5.67;;;5.57;;
673;SDS011;319;48.764;9.174;2024-03-23T16:14:42;6.00;;;5.90;;
673;SDS011;319;48.764;9.174;2024-03-23T16:17:08;6.00;;;5.90;;
673;SDS011;319;48.764;9.174;2024-03-23T16:19:35;5.57;;;5.47;;
673;SDS011;319;48.764;9.174;2024-03-23T16:22:01;6.40;;;6.30;;
673;SDS011;319;48.764;9.174;2024-03-23T16:24:29;6.70;;;6.57;;
673;SDS011;319;48.764;9.174;2024-03-23T16:26:55;6.20;;;6.10;;
673;SDS011;319;48.764;9.174;2024-03-23T16:29:22;5.60;;;5.50;;
673;SDS011;319;48.764;9.174;2024-03-23T16:31:48;5.23;;;5.13;;
673;SDS011;319;48.764;9.174;2024-03-23T16:34:15;6.70;;;6.50;;
673;SDS011;319;48.764;9.174;2024-03-23T16:36:41;5.37;;;5.27;;
673;SDS011;319;48.764;9.174;2024-03-23T16:39:08;6.20;;;6.10;;
673;SDS011;319;48.764;9.174;2024-03-23T16:41:36;6.10;;;6.00;;